Nearby METAR Reports

 

KSJC - San Jose, California, USA
Distance from station: NE 14km
Actualizado: 28/09/2022 06:53
Cu Limpo
Cu Limpo
 Vento de NNW
Vento: NNW 13 km/h
Temperatura: 17°C
Ponto de Orvalho: 13°C
Humidade: 77%
Barmetro: 1015.9 hPa
Clouds: Cu Limpo
Visibility: 16 km
2022/09/28 04:53 KSJC 280453Z 33007KT 10SM CLR 17/13 A3000 RMK AO2 SLP157 T01670133
KNUQ - Moffett Nas/Mtn, California, USA
Distance from station: N 14km
Actualizado: 28/09/2022 07:35
Cu Limpo
Cu Limpo
 Vento de calm
Vento: Calmo
Temperatura: 16°C
Ponto de Orvalho: 12°C
Humidade: 77%
Barmetro: 1015.9 hPa
Clouds: Cu Limpo
Visibility: 16 km
2022/09/28 05:35 KNUQ 280535Z AUTO 00000KT 10SM CLR 16/12 A3000 RMK AO2
 
KPAO - Palo Alto, California, USA
Distance from station: NNW 23km
Actualizado: 28/09/2022 01:47
NOT Current
Cu Limpo
Cu Limpo
 Vento de NNW
Vento: NNW 19 km/h
Temperatura: 20°C
Ponto de Orvalho: 13°C
Humidade: 64%
Barmetro: 1014.9 hPa
Clouds: Cu Limpo
Visibility: 16 km
2022/09/27 23:47 KPAO 272347Z 33010KT 10SM SKC 20/13 A2997
KRHV - San Jose/Reid, California, USA
Distance from station: ENE 19km
Actualizado: 28/09/2022 06:47
Cu Limpo
Cu Limpo
 Vento de WNW
Vento: WNW 7 km/h
Temperatura: 17°C
Ponto de Orvalho: 13°C
Humidade: 77%
Barmetro: 1015.9 hPa
Clouds: Cu Limpo
Visibility: 16 km
2022/09/28 04:47 KRHV 280447Z 30004KT 10SM SKC 17/13 A3000 RMK LAST
 
KOAK - Oakland, California, USA
Distance from station: NNW 50km
Actualizado: 28/09/2022 06:53
Few Clouds
Few Clouds
 Vento de W
Vento: W 13 km/h
Temperatura: 16°C
Ponto de Orvalho: 13°C
Humidade: 83%
Barmetro: 1015.9 hPa
Clouds: Few Clouds
Visibility: 16 km
Cloud details: Few Clouds 305 m
Few Clouds 7620 m
2022/09/28 04:53 KOAK 280453Z 28007KT 10SM FEW010 FEW250 16/13 A3000 RMK AO2 SLP160 T01610128
KSQL - San Carlos Airpo, California, USA
Distance from station: NW 34km
Actualizado: 28/09/2022 07:35
Cu Limpo
Cu Limpo
 Vento de calm
Vento: Calmo
Temperatura: 15°C
Ponto de Orvalho: 12°C
Humidade: 82%
Barmetro: 1016.3 hPa
Clouds: Cu Limpo
Visibility: 16 km
2022/09/28 05:35 KSQL 280535Z AUTO 00000KT 10SM CLR 15/12 A3001 RMK AO2
 
KSFO - San Francisco, California, USA
Distance from station: NW 49km
Actualizado: 28/09/2022 06:56
Few Clouds
Few Clouds
 Vento de W
Vento: W 24 km/h
Temperatura: 15°C
Ponto de Orvalho: 13°C
Humidade: 88%
Barmetro: 1015.9 hPa
Clouds: Few Clouds
Visibility: 16 km
Cloud details: Few Clouds 244 m
Few Clouds 6096 m
2022/09/28 04:56 KSFO 280456Z 28013KT 10SM FEW008 FEW200 15/13 A3000 RMK AO2 SLP159 T01500128
KE16 - San Martin, California, USA
Distance from station: ESE 43km
Actualizado: 28/09/2022 07:35
Cu Limpo
Cu Limpo
 Vento de NNW
Vento: NNW 13 km/h
Temperatura: 17°C
Ponto de Orvalho: 13°C
Humidade: 77%
Barmetro: 1016.3 hPa
Clouds: Cu Limpo
Visibility: 16 km
2022/09/28 05:35 KE16 280535Z AUTO 34007KT 10SM CLR 17/13 A3001 RMK AO2 PWINO PNO
 
KWVI - Watsonville, California, USA
Distance from station: SSE 44km
Actualizado: 28/09/2022 06:53
Cu Limpo
Cu Limpo
 Vento de calm
Vento: Calmo
Temperatura: 14°C
Ponto de Orvalho: 13°C
Humidade: 94%
Barmetro: 1015.6 hPa
Clouds: Cu Limpo
Visibility: 16 km
2022/09/28 04:53 KWVI 280453Z AUTO 00000KT 10SM CLR 14/13 A2999 RMK AO2 SLP154 T01440128
KHAF - Half Moon Bay, California, USA
Distance from station: WNW 50km
Actualizado: 28/09/2022 07:35
Cu Limpo
Cu Limpo
 Vento de N
Vento: N 11 km/h
Temperatura: 14°C
Ponto de Orvalho: 14°C
Humidade: 100%
Barmetro: 1016.6 hPa
Clouds: Cu Limpo
Visibility: 14 km
2022/09/28 05:35 KHAF 280535Z AUTO 35006KT 9SM CLR 14/14 A3002 RMK AO2
 
KHWD - Hayward, California, USA
Distance from station: N 44km
Actualizado: 28/09/2022 06:54
Cu Limpo
Cu Limpo
 Vento de NW
Vento: NW 11 km/h
Temperatura: 16°C
Ponto de Orvalho: 13°C
Humidade: 83%
Barmetro: 1015.9 hPa
Clouds: Cu Limpo
Visibility: 16 km
2022/09/28 04:54 KHWD 280454Z 31006KT 10SM CLR 16/13 A3000 RMK AO2 SLP169 T01560133
KLVK - Livermore, California, USA
Distance from station: NNE 51km
Actualizado: 28/09/2022 06:53
Cu Limpo
Cu Limpo
 Vento de WNW
Vento: WNW 15 km/h
Temperatura: 16°C
Ponto de Orvalho: 12°C
Humidade: 77%
Barmetro: 1015.2 hPa
Clouds: Cu Limpo
Visibility: 16 km
2022/09/28 04:53 KLVK 280453Z AUTO 30008KT 10SM CLR 16/12 A2998 RMK AO2 SLP149 T01610122